CheckWX is a tool to help pilots better visualize weather data.  It is not intended as a substitute for an official pre-flight weather briefing.

18:35:14 UTC

KCTZ METAR
Clinton-Sampson County Airport
Clinton, North Carolina, USA
Current

15 mins ago

KCTZ 171820Z AUTO 02005KT 4SM SCT009 OVC015 05/04 A3008 RMK AO2 T00540042
Observed
Feb-17 @ 18:20 UTC
Wind
  • 020° at 5 KTS
Visibility
4 SM
Flight Rules
MVFR
Cloud Levels
  • Scattered at 900' AGL
  • Overcast at 1,500' AGL
Temperature
C / 41°F
Dewpoint
C / 39°F
Humidity
93%
Altimeter
30.08" Hg
Pressure
1018.62 hPa
Previous

35 mins ago

KCTZ 171800Z AUTO 02004KT 10SM BKN017 06/04 A3008 RMK AO2 T00570038
Observed
Feb-17 @ 18:00 UTC
Wind
  • 020° at 4 KTS
Visibility
10 SM
Flight Rules
MVFR
Cloud Levels
  • Broken at 1,700' AGL
Temperature
C / 43°F
Dewpoint
C / 39°F
Humidity
87%
Altimeter
30.08" Hg
Pressure
1018.62 hPa
Previous

55 mins ago

KCTZ 171740Z AUTO 01004KT 10SM OVC017 06/03 A3008 RMK AO2 T00600029
Observed
Feb-17 @ 17:40 UTC
Wind
  • 010° at 4 KTS
Visibility
10 SM
Flight Rules
MVFR
Cloud Levels
  • Overcast at 1,700' AGL
Temperature
C / 43°F
Dewpoint
C / 37°F
Humidity
81%
Altimeter
30.08" Hg
Pressure
1018.62 hPa